Terminal Aerodrome Forecast
Issued by NWS

Current Version | Previous Version | Text Only | Print | Product List | Glossary Off
Versions: 1 2 3 4 5 6 7 8 9 10 11 12 13

680
FTUS44 KCRP 181728
TAFLRD
TAF
KLRD 181728Z 1818/1918 15012KT P6SM FEW025 SCT050
      TEMPO 1818/1820 BKN020
     FM182000 14015G23KT P6SM SCT050 BKN250
     FM190800 15014KT P6SM BKN025 OVC150=

USA.gov is the U.S. government's official web portal to all federal, state and local government web resources and services.